Time,TemperatureF,DewpointF,PressureIn,WindDirection,WindDirectionDegrees,WindSpeedMPH,WindSpeedGustMPH,Humidity,HourlyPrecipIn,Conditions,Clouds,dailyrainin,SoftwareType,DateUTC
2017-07-20 00:03:00,68.2,47.1,37.98,NW,315,4.0,4.0,47,0.00,,,0.00,meteobridge,2017-07-20 06:03:00,
2017-07-20 00:09:00,68.2,46.0,37.98,WNW,293,6.0,6.0,45,0.00,,,0.00,meteobridge,2017-07-20 06:09:00,
2017-07-20 00:14:00,68.5,46.4,37.98,ESE,113,2.7,2.7,45,0.00,,,0.00,meteobridge,2017-07-20 06:14:00,
2017-07-20 00:19:00,68.5,46.9,37.99,North,0,4.7,6.0,46,0.00,,,0.00,meteobridge,2017-07-20 06:19:00,
2017-07-20 00:24:00,68.5,45.7,37.99,North,0,2.0,5.4,44,0.00,,,0.00,meteobridge,2017-07-20 06:24:00,
2017-07-20 00:29:00,68.5,46.4,37.99,South,180,3.4,4.0,45,0.00,,,0.00,meteobridge,2017-07-20 06:29:00,
2017-07-20 00:34:00,68.4,46.8,38.00,NE,45,6.0,6.0,46,0.00,,,0.00,meteobridge,2017-07-20 06:34:00,
2017-07-20 00:40:00,68.4,46.8,38.00,West,270,8.1,8.7,46,0.00,,,0.00,meteobridge,2017-07-20 06:40:00,
2017-07-20 00:45:00,68.4,47.3,38.00,WNW,293,8.1,8.1,47,0.00,,,0.00,meteobridge,2017-07-20 06:45:00,
2017-07-20 00:50:00,68.2,47.1,38.00,NW,315,5.4,6.7,47,0.00,,,0.00,meteobridge,2017-07-20 06:50:00,
2017-07-20 00:55:00,67.8,48.6,38.00,North,0,3.4,4.0,50,0.00,,,0.00,meteobridge,2017-07-20 06:55:00,
2017-07-20 01:00:00,67.5,48.7,38.01,North,0,4.0,6.7,51,0.00,,,0.00,meteobridge,2017-07-20 07:00:00,
2017-07-20 01:05:00,67.3,49.1,38.01,SW,225,3.4,3.4,52,0.00,,,0.00,meteobridge,2017-07-20 07:05:00,
2017-07-20 01:11:00,66.9,48.7,38.01,NW,315,7.4,7.4,52,0.00,,,0.00,meteobridge,2017-07-20 07:11:00,
2017-07-20 01:16:00,66.4,48.7,38.01,SW,225,3.4,8.1,53,0.00,,,0.00,meteobridge,2017-07-20 07:16:00,
2017-07-20 01:21:00,66.2,49.1,38.01,North,0,5.4,6.0,54,0.00,,,0.00,meteobridge,2017-07-20 07:21:00,
2017-07-20 01:26:00,65.8,49.3,38.01,North,0,3.4,6.0,55,0.00,,,0.00,meteobridge,2017-07-20 07:26:00,
2017-07-20 01:31:00,65.7,49.1,38.01,NW,315,2.7,4.7,55,0.00,,,0.00,meteobridge,2017-07-20 07:31:00,
2017-07-20 01:36:00,65.5,48.9,38.01,North,0,4.0,4.7,55,0.00,,,0.00,meteobridge,2017-07-20 07:36:00,
2017-07-20 01:42:00,65.3,48.7,38.01,NW,315,2.7,3.4,55,0.00,,,0.00,meteobridge,2017-07-20 07:42:00,
2017-07-20 01:47:00,65.1,48.6,38.02,East,90,1.3,2.7,55,0.00,,,0.00,meteobridge,2017-07-20 07:47:00,
2017-07-20 01:52:00,64.8,48.7,38.02,NE,45,4.7,4.7,56,0.00,,,0.00,meteobridge,2017-07-20 07:52:00,
2017-07-20 01:57:00,64.8,48.7,38.02,East,90,2.0,4.0,56,0.00,,,0.00,meteobridge,2017-07-20 07:57:00,
2017-07-20 02:02:00,64.4,48.9,38.01,NE,45,3.4,3.4,57,0.00,,,0.00,meteobridge,2017-07-20 08:02:00,
2017-07-20 02:08:00,63.7,49.1,38.01,NW,315,2.7,3.4,59,0.00,,,0.00,meteobridge,2017-07-20 08:08:00,
2017-07-20 02:13:00,63.5,48.9,38.01,South,180,2.7,3.4,59,0.00,,,0.00,meteobridge,2017-07-20 08:13:00,
2017-07-20 02:18:00,63.7,48.6,38.01,North,0,2.7,2.7,58,0.00,,,0.00,meteobridge,2017-07-20 08:18:00,
2017-07-20 02:23:00,64.2,49.1,38.01,North,0,0.7,3.4,58,0.00,,,0.00,meteobridge,2017-07-20 08:23:00,
2017-07-20 02:28:00,64.2,49.1,38.01,NW,315,5.4,5.4,58,0.00,,,0.00,meteobridge,2017-07-20 08:28:00,
2017-07-20 02:34:00,63.7,49.1,38.01,North,0,5.4,6.0,59,0.00,,,0.00,meteobridge,2017-07-20 08:34:00,
2017-07-20 02:39:00,63.7,49.1,38.01,North,0,2.7,3.4,59,0.00,,,0.00,meteobridge,2017-07-20 08:39:00,
2017-07-20 02:44:00,63.3,49.3,38.01,North,0,4.7,4.7,60,0.00,,,0.00,meteobridge,2017-07-20 08:44:00,
2017-07-20 02:49:00,63.1,49.1,38.01,North,0,4.7,4.7,60,0.00,,,0.00,meteobridge,2017-07-20 08:49:00,
2017-07-20 02:54:00,63.0,48.9,38.01,NW,315,5.4,6.7,60,0.00,,,0.00,meteobridge,2017-07-20 08:54:00,
2017-07-20 02:59:00,63.0,48.9,38.01,WSW,248,4.7,4.7,60,0.00,,,0.00,meteobridge,2017-07-20 08:59:00,
2017-07-20 03:05:00,63.0,48.9,38.01,West,270,4.0,5.4,60,0.00,,,0.00,meteobridge,2017-07-20 09:05:00,
2017-07-20 03:10:00,63.1,49.1,38.01,North,0,3.4,4.7,60,0.00,,,0.00,meteobridge,2017-07-20 09:10:00,
2017-07-20 03:15:00,63.0,48.9,38.02,East,90,4.0,4.0,60,0.00,,,0.00,meteobridge,2017-07-20 09:15:00,
2017-07-20 03:20:00,62.8,49.1,38.01,North,0,4.7,6.7,61,0.00,,,0.00,meteobridge,2017-07-20 09:20:00,
2017-07-20 03:25:00,62.4,49.3,38.01,ENE,68,3.4,4.0,62,0.00,,,0.00,meteobridge,2017-07-20 09:25:00,
2017-07-20 03:30:00,62.1,49.3,38.01,North,0,2.7,3.4,63,0.00,,,0.00,meteobridge,2017-07-20 09:30:00,
2017-07-20 03:36:00,61.9,49.6,38.01,North,0,2.0,5.4,64,0.00,,,0.00,meteobridge,2017-07-20 09:36:00,
2017-07-20 03:41:00,61.5,49.6,38.02,North,0,3.4,4.7,65,0.00,,,0.00,meteobridge,2017-07-20 09:41:00,
2017-07-20 03:46:00,61.2,49.6,38.02,East,90,3.4,6.7,66,0.00,,,0.00,meteobridge,2017-07-20 09:46:00,
2017-07-20 03:51:00,61.0,49.5,38.02,North,0,3.4,3.4,66,0.00,,,0.00,meteobridge,2017-07-20 09:51:00,
2017-07-20 03:56:00,60.8,49.8,38.02,NE,45,2.7,4.0,67,0.00,,,0.00,meteobridge,2017-07-20 09:56:00,
2017-07-20 04:01:00,60.8,49.8,38.01,NE,45,4.7,4.7,67,0.00,,,0.00,meteobridge,2017-07-20 10:01:00,
2017-07-20 04:07:00,60.8,49.8,38.02,NE,45,4.7,4.7,67,0.00,,,0.00,meteobridge,2017-07-20 10:07:00,
2017-07-20 04:12:00,61.5,50.5,38.02,WNW,293,7.4,7.4,67,0.00,,,0.00,meteobridge,2017-07-20 10:12:00,
2017-07-20 04:17:00,61.9,50.7,38.02,North,0,6.7,6.7,67,0.00,,,0.00,meteobridge,2017-07-20 10:17:00,
2017-07-20 04:22:00,61.9,50.7,38.02,North,0,3.4,4.7,67,0.00,,,0.00,meteobridge,2017-07-20 10:22:00,
2017-07-20 04:27:00,62.1,50.9,38.02,NW,315,5.4,5.4,67,0.00,,,0.00,meteobridge,2017-07-20 10:27:00,
2017-07-20 04:32:00,62.1,50.9,38.02,NW,315,3.4,4.0,67,0.00,,,0.00,meteobridge,2017-07-20 10:32:00,
2017-07-20 04:38:00,61.7,50.7,38.03,South,180,1.3,2.7,67,0.00,,,0.00,meteobridge,2017-07-20 10:38:00,
2017-07-20 04:43:00,61.3,50.4,38.02,North,0,2.7,2.7,67,0.00,,,0.00,meteobridge,2017-07-20 10:43:00,
2017-07-20 04:48:00,60.8,50.2,38.02,North,0,2.7,2.7,68,0.00,,,0.00,meteobridge,2017-07-20 10:48:00,
2017-07-20 04:53:00,60.3,50.4,38.01,North,0,2.0,3.4,70,0.00,,,0.00,meteobridge,2017-07-20 10:53:00,
2017-07-20 04:58:00,59.7,50.0,38.02,North,0,1.3,2.7,70,0.00,,,0.00,meteobridge,2017-07-20 10:58:00,
2017-07-20 05:03:00,59.4,50.0,38.02,NE,45,3.4,3.4,71,0.00,,,0.00,meteobridge,2017-07-20 11:03:00,
2017-07-20 05:04:00,59.4,50.0,38.02,East,90,2.0,3.4,71,0.00,,,0.00,meteobridge,2017-07-20 11:04:00,
2017-07-20 05:09:00,59.0,49.6,38.02,East,90,2.0,2.7,71,0.00,,,0.00,meteobridge,2017-07-20 11:09:00,
2017-07-20 05:14:00,59.0,50.0,38.02,SE,135,1.3,4.0,72,0.00,,,0.00,meteobridge,2017-07-20 11:14:00,
2017-07-20 05:19:00,59.0,50.0,38.02,NW,315,1.3,1.3,72,0.00,,,0.00,meteobridge,2017-07-20 11:19:00,
2017-07-20 05:25:00,59.0,50.4,38.03,SE,135,0.0,1.3,73,0.00,,,0.00,meteobridge,2017-07-20 11:25:00,
2017-07-20 05:30:00,58.8,50.5,38.02,East,90,1.3,2.0,74,0.00,,,0.00,meteobridge,2017-07-20 11:30:00,
2017-07-20 05:35:00,58.6,50.4,38.02,East,90,1.3,1.3,74,0.00,,,0.00,meteobridge,2017-07-20 11:35:00,
2017-07-20 05:40:00,58.3,50.4,38.03,NW,315,0.7,0.7,75,0.00,,,0.00,meteobridge,2017-07-20 11:40:00,
2017-07-20 05:45:00,58.1,50.2,38.02,North,0,2.0,3.4,75,0.00,,,0.00,meteobridge,2017-07-20 11:45:00,
2017-07-20 05:50:00,58.1,50.2,38.02,NE,45,1.3,3.4,75,0.00,,,0.00,meteobridge,2017-07-20 11:50:00,
2017-07-20 05:56:00,58.1,50.5,38.02,East,90,0.7,1.3,76,0.00,,,0.00,meteobridge,2017-07-20 11:56:00,
2017-07-20 06:01:00,57.7,50.2,38.02,North,0,0.7,0.7,76,0.00,,,0.00,meteobridge,2017-07-20 12:01:00,
2017-07-20 06:06:00,57.7,50.2,38.02,North,0,0.7,0.7,76,0.00,,,0.00,meteobridge,2017-07-20 12:06:00,
2017-07-20 06:11:00,57.7,50.5,38.03,NW,315,0.7,2.0,77,0.00,,,0.00,meteobridge,2017-07-20 12:11:00,
2017-07-20 06:16:00,58.1,50.9,38.02,NW,315,1.3,1.3,77,0.00,,,0.00,meteobridge,2017-07-20 12:16:00,
2017-07-20 06:21:00,57.7,50.5,38.02,NW,315,0.7,0.7,77,0.00,,,0.00,meteobridge,2017-07-20 12:21:00,
2017-07-20 06:27:00,57.4,50.2,38.02,NW,315,0.0,0.7,77,0.00,,,0.00,meteobridge,2017-07-20 12:27:00,
2017-07-20 06:32:00,57.2,50.7,38.02,NW,315,0.0,0.0,79,0.00,,,0.00,meteobridge,2017-07-20 12:32:00,
2017-07-20 06:37:00,57.2,51.1,38.02,NW,315,1.3,1.3,80,0.00,,,0.00,meteobridge,2017-07-20 12:37:00,
2017-07-20 06:42:00,57.7,52.0,38.02,NW,315,1.3,1.3,81,0.00,,,0.00,meteobridge,2017-07-20 12:42:00,
2017-07-20 06:47:00,58.8,52.7,38.03,North,0,0.7,2.0,80,0.00,,,0.00,meteobridge,2017-07-20 12:47:00,
2017-07-20 06:52:00,59.9,53.1,38.02,NW,315,0.0,0.0,78,0.00,,,0.00,meteobridge,2017-07-20 12:52:00,
2017-07-20 06:58:00,61.3,53.1,38.02,West,270,0.7,2.0,74,0.00,,,0.00,meteobridge,2017-07-20 12:58:00,
2017-07-20 07:03:00,62.4,53.2,38.03,SW,225,0.7,2.7,72,0.00,,,0.00,meteobridge,2017-07-20 13:03:00,
2017-07-20 07:08:00,63.5,53.1,38.02,NW,315,1.3,2.7,69,0.00,,,0.00,meteobridge,2017-07-20 13:08:00,
2017-07-20 07:13:00,64.8,53.6,38.03,NW,315,1.3,2.7,67,0.00,,,0.00,meteobridge,2017-07-20 13:13:00,
2017-07-20 07:18:00,65.7,53.6,38.03,SE,135,2.0,2.0,65,0.00,,,0.00,meteobridge,2017-07-20 13:18:00,
2017-07-20 07:23:00,66.6,53.6,38.03,East,90,3.4,3.4,63,0.00,,,0.00,meteobridge,2017-07-20 13:23:00,
2017-07-20 07:29:00,67.6,54.1,38.02,North,0,2.7,4.0,62,0.00,,,0.00,meteobridge,2017-07-20 13:29:00,
2017-07-20 07:34:00,68.4,54.3,38.02,North,0,2.0,2.0,61,0.00,,,0.00,meteobridge,2017-07-20 13:34:00,
2017-07-20 07:35:00,68.5,54.1,38.02,North,0,1.3,2.0,60,0.00,,,0.00,meteobridge,2017-07-20 13:35:00,
2017-07-20 07:40:00,69.3,54.9,38.02,East,90,2.7,2.7,60,0.00,,,0.00,meteobridge,2017-07-20 13:40:00,
2017-07-20 07:46:00,69.8,54.3,38.02,East,90,2.7,2.7,58,0.00,,,0.00,meteobridge,2017-07-20 13:46:00,
2017-07-20 07:51:00,70.5,54.5,38.02,West,270,0.7,1.3,57,0.00,,,0.00,meteobridge,2017-07-20 13:51:00,
2017-07-20 07:56:00,71.2,54.3,38.02,North,0,2.7,2.7,55,0.00,,,0.00,meteobridge,2017-07-20 13:56:00,
2017-07-20 08:01:00,71.8,54.3,38.02,East,90,2.0,2.0,54,0.00,,,0.00,meteobridge,2017-07-20 14:01:00,
2017-07-20 08:06:00,71.8,54.3,38.02,East,90,2.0,2.0,54,0.00,,,0.00,meteobridge,2017-07-20 14:06:00,
2017-07-20 08:11:00,72.7,54.0,38.03,NE,45,4.7,4.7,52,0.00,,,0.00,meteobridge,2017-07-20 14:11:00,
2017-07-20 08:17:00,72.7,52.9,38.02,East,90,1.3,2.7,50,0.00,,,0.00,meteobridge,2017-07-20 14:17:00,
2017-07-20 08:22:00,72.7,52.9,38.02,North,0,2.7,4.0,50,0.00,,,0.00,meteobridge,2017-07-20 14:22:00,
2017-07-20 08:27:00,73.0,53.8,38.02,NW,315,3.4,5.4,51,0.00,,,0.00,meteobridge,2017-07-20 14:27:00,
2017-07-20 08:32:00,73.0,53.2,38.02,West,270,1.3,4.0,50,0.00,,,0.00,meteobridge,2017-07-20 14:32:00,
2017-07-20 08:37:00,73.4,53.6,38.02,NE,45,5.4,5.4,50,0.00,,,0.00,meteobridge,2017-07-20 14:37:00,
2017-07-20 08:42:00,73.8,52.9,38.02,East,90,4.7,5.4,48,0.00,,,0.00,meteobridge,2017-07-20 14:42:00,
2017-07-20 08:48:00,73.8,52.9,38.02,NW,315,4.7,5.4,48,0.00,,,0.00,meteobridge,2017-07-20 14:48:00,
2017-07-20 08:53:00,73.6,52.7,38.02,SE,135,3.4,6.7,48,0.00,,,0.00,meteobridge,2017-07-20 14:53:00,
2017-07-20 08:58:00,73.8,53.4,38.02,NW,315,5.4,5.4,49,0.00,,,0.00,meteobridge,2017-07-20 14:58:00,